createdAt,value
2019-01-17T00:00:05.878Z,4.52
2019-01-17T00:02:50.998Z,4.54
2019-01-17T00:05:23.760Z,4.54
2019-01-17T00:07:53.818Z,4.57
2019-01-17T00:10:26.745Z,4.59
2019-01-17T00:13:06.080Z,4.58
2019-01-17T00:15:41.663Z,4.59
2019-01-17T00:18:14.696Z,4.60
2019-01-17T00:21:00.165Z,4.62
2019-01-17T00:23:30.925Z,4.64
2019-01-17T00:26:09.723Z,4.67
2019-01-17T00:28:48.499Z,4.68
2019-01-17T00:31:31.240Z,4.69
2019-01-17T00:34:16.592Z,4.70
2019-01-17T00:36:49.386Z,4.70
2019-01-17T00:39:31.501Z,4.71
2019-01-17T00:42:04.536Z,4.69
2019-01-17T00:44:50.535Z,4.69
2019-01-17T00:47:20.621Z,4.70
2019-01-17T00:49:53.534Z,4.70
2019-01-17T00:52:23.612Z,4.67
2019-01-17T00:55:08.593Z,4.74
2019-01-17T00:57:38.636Z,4.73
2019-01-17T01:00:11.768Z,4.70
2019-01-17T01:02:44.753Z,4.74
2019-01-17T01:05:20.729Z,4.76
2019-01-17T01:08:06.709Z,4.75
2019-01-17T01:10:45.233Z,4.73
2019-01-17T01:13:18.050Z,4.71
2019-01-17T01:15:59.904Z,4.73
2019-01-17T01:18:29.983Z,4.73
2019-01-17T01:21:00.113Z,4.75
2019-01-17T01:23:46.361Z,4.71
2019-01-17T01:26:32.301Z,4.71
2019-01-17T01:29:08.418Z,4.73
2019-01-17T01:31:44.218Z,4.75
2019-01-17T01:34:20.065Z,4.76
2019-01-17T01:36:50.113Z,4.74
2019-01-17T01:39:22.851Z,4.70
2019-01-17T01:41:52.920Z,4.72
2019-01-17T01:44:41.309Z,4.67
2019-01-17T01:47:11.373Z,4.68
2019-01-17T01:49:41.514Z,4.64
2019-01-17T01:52:14.372Z,4.63
2019-01-17T01:54:42.795Z,4.66
2019-01-17T01:57:11.207Z,4.65
2019-01-17T01:59:39.655Z,4.67
2019-01-17T02:02:08.103Z,4.69
2019-01-17T02:04:36.577Z,4.70
2019-01-17T02:07:05.117Z,4.76
2019-01-17T02:09:33.514Z,4.76
2019-01-17T02:12:01.931Z,4.75
2019-01-17T02:14:30.511Z,4.76
2019-01-17T02:16:58.931Z,4.77
2019-01-17T02:19:27.447Z,4.79
2019-01-17T02:21:55.913Z,4.79
2019-01-17T02:24:28.489Z,4.79
2019-01-17T02:26:54.553Z,4.82
2019-01-17T02:29:23.009Z,4.84
2019-01-17T02:31:51.411Z,4.85
2019-01-17T02:34:19.848Z,4.88
2019-01-17T02:36:48.287Z,4.90
2019-01-17T02:39:16.713Z,4.92
2019-01-17T02:41:45.161Z,4.92
2019-01-17T02:44:13.579Z,4.90
2019-01-17T02:46:42.004Z,4.95
2019-01-17T02:49:10.443Z,4.93
2019-01-17T02:51:38.920Z,4.93
2019-01-17T02:54:07.364Z,4.94
2019-01-17T02:56:35.814Z,4.95
2019-01-17T02:59:04.303Z,4.94
2019-01-17T03:01:32.710Z,4.91
2019-01-17T03:04:01.141Z,4.91
2019-01-17T03:06:29.557Z,4.92
2019-01-17T03:08:57.977Z,4.90
2019-01-17T03:11:26.402Z,4.91
2019-01-17T03:13:54.898Z,4.90
2019-01-17T03:16:23.297Z,4.90
2019-01-17T03:18:51.731Z,4.90
2019-01-17T03:21:20.175Z,4.90
2019-01-17T03:23:48.579Z,4.90
2019-01-17T03:26:17.055Z,4.87
2019-01-17T03:28:45.473Z,4.84
2019-01-17T03:31:13.873Z,4.80
2019-01-17T03:33:42.334Z,4.83
2019-01-17T03:36:10.756Z,4.79
2019-01-17T03:38:39.179Z,4.82
2019-01-17T03:41:07.633Z,4.83
2019-01-17T03:43:36.046Z,4.85
2019-01-17T03:46:05.026Z,4.84
2019-01-17T03:48:33.569Z,4.81
2019-01-17T03:51:02.012Z,4.78
2019-01-17T03:53:30.536Z,4.79
2019-01-17T03:55:58.997Z,4.72
2019-01-17T03:58:27.430Z,4.76
2019-01-17T04:00:55.872Z,4.77
2019-01-17T04:03:24.353Z,4.72
2019-01-17T04:05:53.204Z,4.73
2019-01-17T04:08:21.675Z,4.69
2019-01-17T04:10:50.092Z,4.71
2019-01-17T04:13:18.495Z,4.72
2019-01-17T04:15:47.031Z,4.65
2019-01-17T04:18:15.458Z,4.65
2019-01-17T04:20:43.865Z,4.62
2019-01-17T04:23:12.306Z,4.63
2019-01-17T04:25:40.707Z,4.62
2019-01-17T04:28:09.170Z,4.64
2019-01-17T04:30:37.638Z,4.61
2019-01-17T04:33:06.071Z,4.66
2019-01-17T04:35:34.571Z,4.64
2019-01-17T04:38:03.017Z,4.66
2019-01-17T04:40:31.421Z,4.67
2019-01-17T04:42:59.835Z,4.67
2019-01-17T04:45:28.255Z,4.68
2019-01-17T04:47:56.665Z,4.68
2019-01-17T04:50:25.102Z,4.73
2019-01-17T04:52:53.517Z,4.75
2019-01-17T04:55:22.007Z,4.76
2019-01-17T04:57:50.476Z,4.78
2019-01-17T05:00:20.626Z,4.79
2019-01-17T05:02:49.267Z,4.78
2019-01-17T05:05:17.779Z,4.80
2019-01-17T05:07:46.266Z,4.80
2019-01-17T05:10:16.636Z,4.78
2019-01-17T05:12:45.039Z,4.79
2019-01-17T05:15:14.232Z,4.78
2019-01-17T05:17:42.712Z,4.76
2019-01-17T05:20:15.761Z,4.76
2019-01-17T05:22:44.305Z,4.73
2019-01-17T05:25:13.367Z,4.73
2019-01-17T05:27:41.810Z,4.73
2019-01-17T05:30:13.470Z,4.71
2019-01-17T05:32:41.934Z,4.73
2019-01-17T05:35:10.381Z,4.75
2019-01-17T05:37:38.801Z,4.71
2019-01-17T05:40:15.611Z,4.70
2019-01-17T05:42:44.091Z,4.70
2019-01-17T05:45:12.972Z,4.66
2019-01-17T05:47:41.456Z,4.65
2019-01-17T05:50:13.253Z,4.64
2019-01-17T05:52:41.766Z,4.65
2019-01-17T05:55:10.333Z,4.67
2019-01-17T05:57:38.780Z,4.72
2019-01-17T06:00:16.161Z,4.88
2019-01-17T06:02:44.593Z,4.82
2019-01-17T06:05:13.840Z,4.79
2019-01-17T06:07:42.263Z,4.83
2019-01-17T06:10:12.417Z,4.79
2019-01-17T06:12:40.854Z,4.77
2019-01-17T06:15:12.313Z,4.72
2019-01-17T06:17:40.793Z,4.77
2019-01-17T06:20:14.839Z,4.75
2019-01-17T06:22:43.341Z,4.71
2019-01-17T06:25:11.819Z,4.71
2019-01-17T06:27:40.333Z,4.77
2019-01-17T06:30:12.096Z,4.70
2019-01-17T06:32:40.565Z,4.69
2019-01-17T06:35:10.086Z,4.74
2019-01-17T06:37:39.065Z,4.74
2019-01-17T06:40:19.759Z,4.71
2019-01-17T06:42:48.668Z,4.75
2019-01-17T06:45:17.436Z,4.69
2019-01-17T06:47:45.946Z,4.65
2019-01-17T06:50:14.380Z,4.65
2019-01-17T06:52:42.870Z,4.63
2019-01-17T06:55:12.174Z,4.65
2019-01-17T06:57:40.582Z,4.66
2019-01-17T07:00:14.663Z,4.65
2019-01-17T07:02:43.742Z,4.66
2019-01-17T07:05:13.983Z,4.65
2019-01-17T07:07:42.414Z,4.63
2019-01-17T07:10:14.094Z,4.62
2019-01-17T07:12:42.498Z,4.67
2019-01-17T07:15:11.074Z,4.66
2019-01-17T07:17:39.636Z,4.67
2019-01-17T07:20:11.593Z,4.67
2019-01-17T07:22:40.021Z,4.65
2019-01-17T07:25:10.296Z,4.66
2019-01-17T07:27:38.775Z,4.69
2019-01-17T07:30:16.182Z,4.66
2019-01-17T07:32:44.690Z,4.63
2019-01-17T07:35:13.213Z,4.65
2019-01-17T07:37:43.040Z,4.61
2019-01-17T07:40:12.513Z,4.61
2019-01-17T07:42:40.953Z,4.62
2019-01-17T07:45:12.733Z,4.57
2019-01-17T07:47:41.200Z,4.58
2019-01-17T07:50:10.990Z,4.60
2019-01-17T07:52:39.391Z,4.61
2019-01-17T07:55:09.593Z,4.58
2019-01-17T07:57:38.207Z,4.58
2019-01-17T08:00:15.253Z,4.60
2019-01-17T08:02:43.665Z,4.59
2019-01-17T08:05:12.237Z,4.59
2019-01-17T08:07:40.729Z,4.62
2019-01-17T08:10:12.221Z,4.62
2019-01-17T08:12:40.776Z,4.65
2019-01-17T08:15:11.361Z,4.64
2019-01-17T08:17:39.866Z,4.64
2019-01-17T08:20:11.346Z,4.63
2019-01-17T08:22:39.793Z,4.64
2019-01-17T08:25:10.635Z,4.63
2019-01-17T08:27:39.119Z,4.70
2019-01-17T08:30:10.615Z,4.71
2019-01-17T08:32:39.018Z,4.67
2019-01-17T08:35:07.929Z,4.72
2019-01-17T08:37:36.352Z,4.76
2019-01-17T08:40:07.840Z,4.81
2019-01-17T08:42:36.302Z,4.83
2019-01-17T08:45:07.573Z,4.89
2019-01-17T08:47:35.996Z,4.91
2019-01-17T08:50:07.859Z,4.87
2019-01-17T08:52:36.274Z,4.94
2019-01-17T08:55:06.563Z,4.92
2019-01-17T08:57:35.061Z,5.00
2019-01-17T09:00:05.671Z,4.94
2019-01-17T09:02:34.088Z,4.93
2019-01-17T09:05:02.527Z,4.91
2019-01-17T09:07:30.949Z,4.96
2019-01-17T09:09:59.410Z,4.95
2019-01-17T09:12:27.837Z,4.98
2019-01-17T09:14:56.299Z,5.20
2019-01-17T09:17:24.747Z,5.36
2019-01-17T09:19:53.184Z,5.87
2019-01-17T09:22:21.711Z,6.50
2019-01-17T09:24:50.143Z,6.80
2019-01-17T09:27:18.546Z,7.09
2019-01-17T09:29:47.074Z,6.94
2019-01-17T09:32:15.530Z,7.13
2019-01-17T09:34:43.954Z,6.91
2019-01-17T09:37:12.438Z,6.32
2019-01-17T09:39:40.855Z,6.42
2019-01-17T09:42:09.297Z,6.54
2019-01-17T09:44:37.714Z,6.47
2019-01-17T09:47:06.131Z,6.75
2019-01-17T09:49:34.583Z,7.15
2019-01-17T09:52:03.111Z,7.30
2019-01-17T09:54:31.554Z,7.24
2019-01-17T09:56:59.997Z,6.88
2019-01-17T09:59:28.394Z,6.88
2019-01-17T10:01:56.928Z,7.07
2019-01-17T10:04:26.573Z,7.22
2019-01-17T10:06:55.213Z,7.04
2019-01-17T10:09:23.734Z,7.08
2019-01-17T10:11:52.147Z,6.74
2019-01-17T10:14:20.569Z,6.84
2019-01-17T10:16:51.750Z,7.01
2019-01-17T10:19:25.870Z,6.96
2019-01-17T10:22:06.165Z,6.99
2019-01-17T10:24:43.467Z,6.59
2019-01-17T10:27:42.301Z,6.74
2019-01-17T10:30:25.570Z,6.78
2019-01-17T10:32:59.748Z,6.60
2019-01-17T10:35:31.175Z,6.64
2019-01-17T10:38:05.606Z,6.64
2019-01-17T10:40:45.577Z,6.71
2019-01-17T10:43:50.057Z,6.80
2019-01-17T10:46:39.465Z,6.72
2019-01-17T10:49:16.652Z,6.67
2019-01-17T10:52:08.921Z,6.79
2019-01-17T10:55:03.129Z,6.78
2019-01-17T10:57:43.303Z,6.80
2019-01-17T11:00:17.854Z,6.72
2019-01-17T11:03:08.804Z,6.69
2019-01-17T11:05:42.911Z,6.55
2019-01-17T11:08:21.108Z,6.47
2019-01-17T11:11:07.987Z,6.49
2019-01-17T11:13:45.390Z,6.50
2019-01-17T11:16:19.694Z,6.54
2019-01-17T11:19:03.203Z,6.59
2019-01-17T11:21:43.421Z,6.53
2019-01-17T11:24:32.824Z,6.57
2019-01-17T11:27:15.856Z,6.46
2019-01-17T11:29:50.261Z,6.38
2019-01-17T11:32:24.523Z,6.26
2019-01-17T11:34:56.019Z,6.38
2019-01-17T11:37:48.148Z,6.47
2019-01-17T11:40:43.571Z,6.50
2019-01-17T11:43:42.322Z,6.53
2019-01-17T11:46:13.843Z,6.65
2019-01-17T11:49:03.245Z,6.76
2019-01-17T11:51:37.383Z,6.82
2019-01-17T11:54:23.658Z,6.75
2019-01-17T11:57:00.926Z,6.72
2019-01-17T11:59:41.079Z,6.71
2019-01-17T12:02:21.884Z,6.67
2019-01-17T12:04:49.155Z,6.71
2019-01-17T12:07:19.026Z,6.62
2019-01-17T12:09:47.489Z,6.64
2019-01-17T12:12:17.547Z,6.62
2019-01-17T12:14:45.960Z,6.59
2019-01-17T12:17:14.389Z,6.59
2019-01-17T12:19:42.814Z,6.54
2019-01-17T12:22:11.232Z,6.55
2019-01-17T12:24:39.756Z,6.53
2019-01-17T12:27:08.167Z,6.54
2019-01-17T12:29:36.606Z,6.59
2019-01-17T12:32:05.083Z,6.66
2019-01-17T12:34:33.521Z,6.55
2019-01-17T12:37:01.938Z,6.63
2019-01-17T12:39:30.341Z,6.60
2019-01-17T12:41:59.035Z,6.62
2019-01-17T12:44:27.572Z,6.60
2019-01-17T12:46:55.976Z,6.58
2019-01-17T12:49:24.423Z,6.63
2019-01-17T12:51:52.905Z,6.60
2019-01-17T12:54:21.323Z,6.64
2019-01-17T12:56:54.016Z,6.66
2019-01-17T12:59:19.905Z,6.70
2019-01-17T13:01:48.351Z,6.64
2019-01-17T13:04:16.755Z,6.67
2019-01-17T13:06:46.818Z,6.71
2019-01-17T13:09:15.234Z,6.71
2019-01-17T13:11:43.656Z,6.75
2019-01-17T13:14:13.007Z,6.78
2019-01-17T13:16:41.431Z,6.70
2019-01-17T13:19:09.836Z,6.74
2019-01-17T13:21:38.306Z,6.73
2019-01-17T13:24:06.796Z,6.79
2019-01-17T13:26:35.208Z,6.76
2019-01-17T13:29:03.667Z,6.71
2019-01-17T13:31:32.087Z,6.65
2019-01-17T13:34:00.511Z,6.58
2019-01-17T13:36:28.931Z,6.47
2019-01-17T13:38:57.364Z,6.45
2019-01-17T13:41:25.807Z,6.36
2019-01-17T13:43:54.217Z,6.31
2019-01-17T13:46:22.642Z,6.25
2019-01-17T13:48:51.062Z,6.28
2019-01-17T13:51:19.519Z,6.29
2019-01-17T13:53:47.916Z,6.22
2019-01-17T13:56:16.358Z,6.23
2019-01-17T13:58:44.789Z,5.88
2019-01-17T14:01:13.822Z,5.64
2019-01-17T14:03:42.334Z,5.53
2019-01-17T14:06:10.795Z,5.40
2019-01-17T14:08:39.319Z,5.17
2019-01-17T14:11:07.750Z,4.85
2019-01-17T14:13:36.176Z,4.62
2019-01-17T14:16:04.979Z,4.41
2019-01-17T14:18:33.401Z,4.28
2019-01-17T14:21:01.827Z,4.17
2019-01-17T14:23:30.311Z,4.07
2019-01-17T14:25:59.608Z,4.01
2019-01-17T14:28:28.069Z,3.80
2019-01-17T14:30:56.493Z,3.83
2019-01-17T14:33:24.909Z,3.71
2019-01-17T14:35:53.441Z,3.69
2019-01-17T14:38:21.847Z,3.62
2019-01-17T14:40:50.303Z,3.57
2019-01-17T14:43:18.734Z,3.44
2019-01-17T14:45:47.219Z,3.34
2019-01-17T14:48:15.699Z,3.17
2019-01-17T14:50:44.141Z,3.12
2019-01-17T14:53:12.628Z,3.03
2019-01-17T14:55:41.050Z,2.95
2019-01-17T14:58:09.549Z,3.03
2019-01-17T15:00:37.989Z,2.78
2019-01-17T15:03:06.446Z,2.50
2019-01-17T15:05:34.944Z,2.70
2019-01-17T15:08:03.508Z,2.66
2019-01-17T15:10:35.399Z,2.64
2019-01-17T15:13:04.084Z,2.58
2019-01-17T15:15:32.661Z,2.61
2019-01-17T15:18:01.093Z,2.68
2019-01-17T15:20:29.664Z,2.70
2019-01-17T15:22:58.150Z,2.66
2019-01-17T15:25:26.647Z,2.60
2019-01-17T15:27:55.085Z,2.68
2019-01-17T15:30:25.556Z,2.57
2019-01-17T15:32:54.425Z,2.60
2019-01-17T15:35:22.908Z,2.43
2019-01-17T15:37:51.342Z,2.47
2019-01-17T15:40:22.726Z,2.49
2019-01-17T15:42:51.132Z,2.37
2019-01-17T15:45:19.711Z,2.49
2019-01-17T15:47:48.129Z,2.48
2019-01-17T15:50:18.394Z,2.44
2019-01-17T15:52:47.257Z,2.52
2019-01-17T15:55:16.723Z,2.49
2019-01-17T15:57:45.283Z,2.52
2019-01-17T16:00:25.432Z,2.49
2019-01-17T16:02:53.882Z,2.50
2019-01-17T16:05:22.375Z,2.57
2019-01-17T16:07:50.851Z,2.51
2019-01-17T16:10:19.742Z,2.52
2019-01-17T16:12:48.167Z,2.56
2019-01-17T16:15:19.157Z,2.48
2019-01-17T16:17:47.674Z,2.52
2019-01-17T16:20:17.362Z,2.55
2019-01-17T16:22:46.040Z,2.57
2019-01-17T16:25:15.420Z,2.60
2019-01-17T16:27:43.920Z,2.60
2019-01-17T16:30:17.948Z,2.55
2019-01-17T16:32:46.388Z,2.56
2019-01-17T16:35:14.944Z,2.56
2019-01-17T16:37:43.903Z,2.52
2019-01-17T16:40:14.871Z,2.49
2019-01-17T16:42:43.321Z,2.52
2019-01-17T16:45:14.796Z,2.54
2019-01-17T16:47:43.213Z,2.60
2019-01-17T16:50:17.661Z,2.55
2019-01-17T16:52:46.179Z,2.57
2019-01-17T16:55:15.544Z,2.60
2019-01-17T16:57:48.874Z,2.60
2019-01-17T17:00:22.909Z,2.61
2019-01-17T17:02:51.461Z,2.65
2019-01-17T17:05:20.038Z,2.64
2019-01-17T17:07:48.483Z,2.70
2019-01-17T17:10:17.557Z,2.74
2019-01-17T17:12:46.059Z,2.72
2019-01-17T17:15:25.936Z,2.71
2019-01-17T17:17:56.839Z,2.68
2019-01-17T17:20:26.738Z,2.65
2019-01-17T17:22:55.144Z,2.62
2019-01-17T17:25:23.825Z,2.64
2019-01-17T17:27:55.717Z,2.67
2019-01-17T17:30:25.023Z,2.65
2019-01-17T17:32:53.872Z,2.67
2019-01-17T17:35:22.379Z,2.68
2019-01-17T17:37:50.891Z,2.73
2019-01-17T17:40:25.243Z,2.77
2019-01-17T17:42:53.752Z,2.74
2019-01-17T17:45:22.241Z,2.74
2019-01-17T17:47:50.702Z,2.72
2019-01-17T17:50:21.032Z,2.70
2019-01-17T17:52:50.253Z,2.63
2019-01-17T17:55:20.016Z,2.62
2019-01-17T17:57:48.539Z,2.62
2019-01-17T18:00:29.443Z,2.64
2019-01-17T18:02:57.947Z,2.66
2019-01-17T18:05:26.571Z,2.67
2019-01-17T18:07:55.062Z,2.69
2019-01-17T18:10:23.556Z,2.72
2019-01-17T18:12:51.971Z,2.71
2019-01-17T18:15:27.684Z,2.72
2019-01-17T18:17:56.102Z,2.72
2019-01-17T18:20:24.625Z,2.72
2019-01-17T18:22:53.047Z,2.77
2019-01-17T18:25:21.570Z,2.69
2019-01-17T18:27:49.994Z,2.66
2019-01-17T18:30:21.408Z,2.66
2019-01-17T18:32:50.017Z,2.55
2019-01-17T18:35:18.539Z,2.49
2019-01-17T18:37:47.122Z,2.51
2019-01-17T18:40:20.329Z,2.50
2019-01-17T18:42:49.307Z,2.40
2019-01-17T18:45:20.478Z,2.39
2019-01-17T18:47:48.907Z,2.34
2019-01-17T18:50:23.147Z,2.29
2019-01-17T18:52:51.655Z,2.24
2019-01-17T18:55:20.093Z,2.19
2019-01-17T18:57:48.505Z,2.14
2019-01-17T19:00:23.584Z,2.09
2019-01-17T19:02:52.682Z,2.04
2019-01-17T19:05:21.339Z,1.98
2019-01-17T19:07:52.470Z,1.95
2019-01-17T19:10:21.772Z,1.93
2019-01-17T19:12:50.871Z,1.90
2019-01-17T19:15:31.251Z,1.84
2019-01-17T19:18:00.160Z,1.81
2019-01-17T19:20:28.814Z,1.82
2019-01-17T19:22:57.302Z,1.80
2019-01-17T19:25:25.901Z,1.80
2019-01-17T19:28:00.411Z,1.76
2019-01-17T19:30:30.307Z,1.79
2019-01-17T19:32:58.905Z,1.77
2019-01-17T19:35:34.534Z,1.78
2019-01-17T19:38:03.315Z,1.79
2019-01-17T19:40:31.716Z,1.83
2019-01-17T19:43:00.253Z,1.88
2019-01-17T19:45:28.758Z,1.87
2019-01-17T19:47:57.162Z,1.91
2019-01-17T19:50:31.336Z,1.89
2019-01-17T19:52:59.898Z,1.91
2019-01-17T19:55:28.625Z,1.91
2019-01-17T19:57:57.080Z,1.91
2019-01-17T20:00:25.943Z,1.90
2019-01-17T20:02:54.361Z,1.88
2019-01-17T20:05:33.197Z,1.85
2019-01-17T20:08:02.129Z,1.82
2019-01-17T20:10:33.001Z,1.75
2019-01-17T20:13:01.635Z,1.71
2019-01-17T20:15:30.123Z,1.70
2019-01-17T20:17:58.599Z,1.71
2019-01-17T20:20:31.795Z,1.73
2019-01-17T20:22:57.728Z,1.77
2019-01-17T20:25:26.279Z,1.78
2019-01-17T20:27:54.940Z,1.84
2019-01-17T20:30:26.200Z,1.87
2019-01-17T20:32:56.142Z,1.84
2019-01-17T20:35:24.647Z,1.87
2019-01-17T20:37:53.103Z,1.90
2019-01-17T20:40:23.656Z,1.92
2019-01-17T20:42:52.232Z,1.93
2019-01-17T20:45:21.094Z,1.94
2019-01-17T20:47:49.678Z,1.95
2019-01-17T20:50:23.811Z,1.98
2019-01-17T20:52:52.397Z,1.99
2019-01-17T20:55:20.986Z,2.02
2019-01-17T20:57:50.661Z,2.05
2019-01-17T21:00:43.139Z,2.03
2019-01-17T21:03:13.226Z,2.04
2019-01-17T21:05:41.647Z,2.02
2019-01-17T21:08:10.416Z,2.04
2019-01-17T21:10:39.502Z,1.99
2019-01-17T21:13:08.201Z,2.02
2019-01-17T21:15:38.251Z,1.93
2019-01-17T21:18:06.728Z,1.93
2019-01-17T21:20:35.159Z,1.90
2019-01-17T21:23:03.654Z,1.88
2019-01-17T21:25:32.113Z,1.83
2019-01-17T21:28:00.600Z,1.77
2019-01-17T21:30:29.397Z,1.75
2019-01-17T21:32:57.870Z,1.71
2019-01-17T21:35:26.578Z,1.64
2019-01-17T21:37:55.111Z,1.61
2019-01-17T21:40:25.033Z,1.55
2019-01-17T21:42:53.945Z,1.58
2019-01-17T21:45:22.429Z,1.58
2019-01-17T21:47:52.094Z,1.55
2019-01-17T21:50:26.590Z,1.55
2019-01-17T21:52:55.242Z,1.57
2019-01-17T21:55:24.259Z,1.54
2019-01-17T21:57:53.741Z,1.54
2019-01-17T22:00:29.911Z,1.52
2019-01-17T22:02:58.336Z,1.56
2019-01-17T22:05:26.832Z,1.53
2019-01-17T22:07:55.334Z,1.55
2019-01-17T22:10:24.289Z,1.56
2019-01-17T22:12:52.808Z,1.56
2019-01-17T22:15:23.875Z,1.54
2019-01-17T22:17:52.831Z,1.51
2019-01-17T22:20:21.296Z,1.50
2019-01-17T22:22:50.046Z,1.50
2019-01-17T22:25:20.412Z,1.48
2019-01-17T22:27:50.962Z,1.50
2019-01-17T22:30:30.416Z,1.57
2019-01-17T22:32:58.831Z,1.55
2019-01-17T22:35:27.473Z,1.56
2019-01-17T22:37:55.898Z,1.58
2019-01-17T22:40:24.758Z,1.61
2019-01-17T22:42:53.289Z,1.60
2019-01-17T22:45:24.654Z,1.68
2019-01-17T22:47:53.191Z,1.69
2019-01-17T22:50:21.801Z,1.71
2019-01-17T22:52:51.647Z,1.74
2019-01-17T22:55:20.152Z,1.78
2019-01-17T22:57:48.778Z,1.76
2019-01-17T23:00:52.238Z,1.75
2019-01-17T23:03:23.916Z,1.76
2019-01-17T23:05:52.381Z,1.76
2019-01-17T23:08:20.983Z,1.75
2019-01-17T23:10:49.588Z,1.76
2019-01-17T23:13:18.130Z,1.76
2019-01-17T23:15:46.582Z,1.77
2019-01-17T23:18:15.013Z,1.74
2019-01-17T23:20:44.196Z,1.74
2019-01-17T23:23:12.817Z,1.77
2019-01-17T23:25:41.296Z,1.75
2019-01-17T23:28:09.740Z,1.77
2019-01-17T23:30:38.203Z,1.79
2019-01-17T23:33:06.991Z,1.74
2019-01-17T23:35:41.396Z,1.71
2019-01-17T23:38:09.862Z,1.69
2019-01-17T23:40:38.306Z,1.68
2019-01-17T23:43:06.728Z,1.69
2019-01-17T23:45:35.245Z,1.72
2019-01-17T23:48:03.769Z,1.70
2019-01-17T23:50:32.254Z,1.63
2019-01-17T23:53:00.712Z,1.57
2019-01-17T23:55:29.145Z,1.47
2019-01-17T23:57:57.644Z,1.41
